sensor_id;sensor_type;location;lat;lon;timestamp;P1;durP1;ratioP1;P2;durP2;ratioP2
21110;SDS011;10713;51.912;4.494;2023-07-24T00:01:12;4.25;;;2.08;;
21110;SDS011;10713;51.912;4.494;2023-07-24T00:03:39;4.35;;;2.08;;
21110;SDS011;10713;51.912;4.494;2023-07-24T00:06:04;5.00;;;2.22;;
21110;SDS011;10713;51.912;4.494;2023-07-24T00:08:29;5.50;;;2.55;;
21110;SDS011;10713;51.912;4.494;2023-07-24T00:10:55;3.70;;;1.98;;
21110;SDS011;10713;51.912;4.494;2023-07-24T00:13:20;5.13;;;2.58;;
21110;SDS011;10713;51.912;4.494;2023-07-24T00:15:45;6.55;;;2.22;;
21110;SDS011;10713;51.912;4.494;2023-07-24T00:18:11;3.63;;;2.20;;
21110;SDS011;10713;51.912;4.494;2023-07-24T00:20:36;6.38;;;2.70;;
21110;SDS011;10713;51.912;4.494;2023-07-24T00:23:01;5.43;;;2.35;;
21110;SDS011;10713;51.912;4.494;2023-07-24T00:25:27;7.63;;;2.33;;
21110;SDS011;10713;51.912;4.494;2023-07-24T00:27:52;5.18;;;2.10;;
21110;SDS011;10713;51.912;4.494;2023-07-24T00:30:17;5.25;;;2.17;;
21110;SDS011;10713;51.912;4.494;2023-07-24T00:32:43;4.25;;;2.08;;
21110;SDS011;10713;51.912;4.494;2023-07-24T00:35:08;4.03;;;2.00;;
21110;SDS011;10713;51.912;4.494;2023-07-24T00:37:33;5.93;;;2.28;;
21110;SDS011;10713;51.912;4.494;2023-07-24T00:39:59;4.82;;;2.42;;
21110;SDS011;10713;51.912;4.494;2023-07-24T00:42:24;6.13;;;2.10;;
21110;SDS011;10713;51.912;4.494;2023-07-24T00:44:50;5.65;;;2.30;;
21110;SDS011;10713;51.912;4.494;2023-07-24T00:47:15;5.20;;;2.45;;
21110;SDS011;10713;51.912;4.494;2023-07-24T00:49:41;4.25;;;2.22;;
21110;SDS011;10713;51.912;4.494;2023-07-24T00:52:07;6.00;;;2.63;;
21110;SDS011;10713;51.912;4.494;2023-07-24T00:54:33;4.85;;;2.25;;
21110;SDS011;10713;51.912;4.494;2023-07-24T00:56:59;5.05;;;2.17;;
21110;SDS011;10713;51.912;4.494;2023-07-24T00:59:25;5.28;;;2.05;;
21110;SDS011;10713;51.912;4.494;2023-07-24T01:01:51;5.53;;;2.30;;
21110;SDS011;10713;51.912;4.494;2023-07-24T01:04:16;4.63;;;2.25;;
21110;SDS011;10713;51.912;4.494;2023-07-24T01:06:43;5.38;;;2.35;;
21110;SDS011;10713;51.912;4.494;2023-07-24T01:09:08;4.68;;;2.30;;
21110;SDS011;10713;51.912;4.494;2023-07-24T01:11:39;3.90;;;1.80;;
21110;SDS011;10713;51.912;4.494;2023-07-24T01:14:09;5.97;;;2.40;;
21110;SDS011;10713;51.912;4.494;2023-07-24T01:16:41;4.65;;;2.35;;
21110;SDS011;10713;51.912;4.494;2023-07-24T01:19:12;5.07;;;2.22;;
21110;SDS011;10713;51.912;4.494;2023-07-24T01:21:51;4.78;;;2.00;;
21110;SDS011;10713;51.912;4.494;2023-07-24T01:24:45;5.07;;;2.10;;
21110;SDS011;10713;51.912;4.494;2023-07-24T01:27:20;5.63;;;2.33;;
21110;SDS011;10713;51.912;4.494;2023-07-24T01:29:49;7.30;;;2.55;;
21110;SDS011;10713;51.912;4.494;2023-07-24T01:32:14;5.22;;;2.53;;
21110;SDS011;10713;51.912;4.494;2023-07-24T01:34:40;5.20;;;2.45;;
21110;SDS011;10713;51.912;4.494;2023-07-24T01:37:05;4.18;;;2.08;;
21110;SDS011;10713;51.912;4.494;2023-07-24T01:39:31;5.38;;;2.40;;
21110;SDS011;10713;51.912;4.494;2023-07-24T01:41:57;6.88;;;2.70;;
21110;SDS011;10713;51.912;4.494;2023-07-24T01:44:23;7.68;;;2.83;;
21110;SDS011;10713;51.912;4.494;2023-07-24T01:46:48;6.97;;;2.50;;
21110;SDS011;10713;51.912;4.494;2023-07-24T01:49:14;9.00;;;3.10;;
21110;SDS011;10713;51.912;4.494;2023-07-24T01:51:39;7.05;;;2.67;;
21110;SDS011;10713;51.912;4.494;2023-07-24T01:54:04;5.82;;;2.67;;
21110;SDS011;10713;51.912;4.494;2023-07-24T01:56:30;8.07;;;2.53;;
21110;SDS011;10713;51.912;4.494;2023-07-24T01:58:55;5.78;;;2.88;;
21110;SDS011;10713;51.912;4.494;2023-07-24T02:01:20;7.47;;;3.10;;
21110;SDS011;10713;51.912;4.494;2023-07-24T02:03:46;10.10;;;3.33;;
21110;SDS011;10713;51.912;4.494;2023-07-24T02:06:11;8.98;;;3.42;;
21110;SDS011;10713;51.912;4.494;2023-07-24T02:08:36;7.20;;;3.33;;
21110;SDS011;10713;51.912;4.494;2023-07-24T02:11:02;8.15;;;3.58;;
21110;SDS011;10713;51.912;4.494;2023-07-24T02:13:27;7.65;;;3.50;;
21110;SDS011;10713;51.912;4.494;2023-07-24T02:15:52;7.93;;;3.08;;
21110;SDS011;10713;51.912;4.494;2023-07-24T02:18:18;8.77;;;2.95;;
21110;SDS011;10713;51.912;4.494;2023-07-24T02:20:50;7.85;;;3.45;;
21110;SDS011;10713;51.912;4.494;2023-07-24T02:23:16;10.52;;;4.28;;
21110;SDS011;10713;51.912;4.494;2023-07-24T02:25:41;7.35;;;3.80;;
21110;SDS011;10713;51.912;4.494;2023-07-24T02:28:08;9.32;;;4.15;;
21110;SDS011;10713;51.912;4.494;2023-07-24T02:30:37;8.13;;;4.07;;
21110;SDS011;10713;51.912;4.494;2023-07-24T02:33:02;10.23;;;4.10;;
21110;SDS011;10713;51.912;4.494;2023-07-24T02:35:28;6.95;;;3.42;;
21110;SDS011;10713;51.912;4.494;2023-07-24T02:37:53;6.65;;;3.25;;
21110;SDS011;10713;51.912;4.494;2023-07-24T02:40:18;10.90;;;4.05;;
21110;SDS011;10713;51.912;4.494;2023-07-24T02:42:44;12.82;;;3.60;;
21110;SDS011;10713;51.912;4.494;2023-07-24T02:45:09;10.15;;;3.78;;
21110;SDS011;10713;51.912;4.494;2023-07-24T02:47:36;6.97;;;3.30;;
21110;SDS011;10713;51.912;4.494;2023-07-24T02:50:01;6.65;;;3.33;;
21110;SDS011;10713;51.912;4.494;2023-07-24T02:52:27;9.70;;;4.18;;
21110;SDS011;10713;51.912;4.494;2023-07-24T02:54:52;11.27;;;3.53;;
21110;SDS011;10713;51.912;4.494;2023-07-24T02:57:17;9.73;;;3.63;;
21110;SDS011;10713;51.912;4.494;2023-07-24T02:59:43;6.35;;;3.70;;
21110;SDS011;10713;51.912;4.494;2023-07-24T03:02:08;4.90;;;2.90;;
21110;SDS011;10713;51.912;4.494;2023-07-24T03:04:33;7.47;;;3.70;;
21110;SDS011;10713;51.912;4.494;2023-07-24T03:06:59;7.47;;;3.95;;
21110;SDS011;10713;51.912;4.494;2023-07-24T03:09:24;5.95;;;3.25;;
21110;SDS011;10713;51.912;4.494;2023-07-24T03:11:50;8.57;;;3.40;;
21110;SDS011;10713;51.912;4.494;2023-07-24T03:14:15;8.90;;;3.83;;
21110;SDS011;10713;51.912;4.494;2023-07-24T03:16:40;8.93;;;3.65;;
21110;SDS011;10713;51.912;4.494;2023-07-24T03:19:06;7.45;;;3.78;;
21110;SDS011;10713;51.912;4.494;2023-07-24T03:21:31;9.30;;;3.30;;
21110;SDS011;10713;51.912;4.494;2023-07-24T03:23:56;9.88;;;4.18;;
21110;SDS011;10713;51.912;4.494;2023-07-24T03:26:22;6.32;;;3.60;;
21110;SDS011;10713;51.912;4.494;2023-07-24T03:28:47;10.85;;;4.47;;
21110;SDS011;10713;51.912;4.494;2023-07-24T03:31:12;7.30;;;3.60;;
21110;SDS011;10713;51.912;4.494;2023-07-24T03:33:37;10.23;;;4.60;;
21110;SDS011;10713;51.912;4.494;2023-07-24T03:36:03;9.63;;;4.03;;
21110;SDS011;10713;51.912;4.494;2023-07-24T03:38:28;7.65;;;3.83;;
21110;SDS011;10713;51.912;4.494;2023-07-24T03:40:54;9.10;;;4.00;;
21110;SDS011;10713;51.912;4.494;2023-07-24T03:43:19;9.57;;;3.88;;
21110;SDS011;10713;51.912;4.494;2023-07-24T03:45:44;10.10;;;3.83;;
21110;SDS011;10713;51.912;4.494;2023-07-24T03:48:10;12.93;;;3.72;;
21110;SDS011;10713;51.912;4.494;2023-07-24T03:50:35;15.02;;;4.50;;
21110;SDS011;10713;51.912;4.494;2023-07-24T03:53:01;10.45;;;3.55;;
21110;SDS011;10713;51.912;4.494;2023-07-24T03:55:26;7.07;;;3.78;;
21110;SDS011;10713;51.912;4.494;2023-07-24T03:57:51;7.95;;;3.95;;
21110;SDS011;10713;51.912;4.494;2023-07-24T04:00:17;9.18;;;4.22;;
21110;SDS011;10713;51.912;4.494;2023-07-24T04:02:43;9.27;;;4.32;;
21110;SDS011;10713;51.912;4.494;2023-07-24T04:05:09;7.07;;;3.92;;
21110;SDS011;10713;51.912;4.494;2023-07-24T04:07:34;7.78;;;3.35;;
21110;SDS011;10713;51.912;4.494;2023-07-24T04:10:00;8.45;;;3.63;;
21110;SDS011;10713;51.912;4.494;2023-07-24T04:12:25;8.80;;;2.97;;
21110;SDS011;10713;51.912;4.494;2023-07-24T04:14:50;12.23;;;3.20;;
21110;SDS011;10713;51.912;4.494;2023-07-24T04:17:16;11.13;;;3.65;;
21110;SDS011;10713;51.912;4.494;2023-07-24T04:19:41;9.02;;;3.45;;
21110;SDS011;10713;51.912;4.494;2023-07-24T04:22:07;10.30;;;3.40;;
21110;SDS011;10713;51.912;4.494;2023-07-24T04:24:32;8.20;;;3.40;;
21110;SDS011;10713;51.912;4.494;2023-07-24T04:26:57;7.15;;;2.75;;
21110;SDS011;10713;51.912;4.494;2023-07-24T04:29:23;18.58;;;3.47;;
21110;SDS011;10713;51.912;4.494;2023-07-24T04:31:50;8.23;;;3.03;;
21110;SDS011;10713;51.912;4.494;2023-07-24T04:34:16;8.85;;;3.05;;
21110;SDS011;10713;51.912;4.494;2023-07-24T04:36:41;12.52;;;3.67;;
21110;SDS011;10713;51.912;4.494;2023-07-24T04:39:06;8.85;;;2.78;;
21110;SDS011;10713;51.912;4.494;2023-07-24T04:41:32;9.52;;;2.97;;
21110;SDS011;10713;51.912;4.494;2023-07-24T04:43:57;7.10;;;2.65;;
21110;SDS011;10713;51.912;4.494;2023-07-24T04:46:22;5.50;;;2.97;;
21110;SDS011;10713;51.912;4.494;2023-07-24T04:48:48;6.80;;;3.15;;
21110;SDS011;10713;51.912;4.494;2023-07-24T04:51:13;10.30;;;3.08;;
21110;SDS011;10713;51.912;4.494;2023-07-24T04:53:38;9.48;;;2.67;;
21110;SDS011;10713;51.912;4.494;2023-07-24T04:56:04;6.18;;;2.63;;
21110;SDS011;10713;51.912;4.494;2023-07-24T04:58:29;7.65;;;2.42;;
21110;SDS011;10713;51.912;4.494;2023-07-24T05:00:54;10.10;;;2.67;;
21110;SDS011;10713;51.912;4.494;2023-07-24T05:03:20;11.00;;;2.75;;
21110;SDS011;10713;51.912;4.494;2023-07-24T05:05:53;7.15;;;2.55;;
21110;SDS011;10713;51.912;4.494;2023-07-24T05:08:19;5.82;;;2.88;;
21110;SDS011;10713;51.912;4.494;2023-07-24T05:10:45;5.38;;;2.33;;
21110;SDS011;10713;51.912;4.494;2023-07-24T05:13:10;6.38;;;2.83;;
21110;SDS011;10713;51.912;4.494;2023-07-24T05:15:35;6.45;;;2.35;;
21110;SDS011;10713;51.912;4.494;2023-07-24T05:18:01;8.23;;;2.88;;
21110;SDS011;10713;51.912;4.494;2023-07-24T05:20:26;5.85;;;2.88;;
21110;SDS011;10713;51.912;4.494;2023-07-24T05:22:51;6.53;;;2.80;;
21110;SDS011;10713;51.912;4.494;2023-07-24T05:25:17;16.25;;;2.75;;
21110;SDS011;10713;51.912;4.494;2023-07-24T05:27:42;5.85;;;2.42;;
21110;SDS011;10713;51.912;4.494;2023-07-24T05:30:07;5.68;;;2.40;;
21110;SDS011;10713;51.912;4.494;2023-07-24T05:32:33;6.95;;;2.80;;
21110;SDS011;10713;51.912;4.494;2023-07-24T05:34:58;8.38;;;2.50;;
21110;SDS011;10713;51.912;4.494;2023-07-24T05:37:24;7.28;;;2.50;;
21110;SDS011;10713;51.912;4.494;2023-07-24T05:39:49;7.72;;;2.38;;
21110;SDS011;10713;51.912;4.494;2023-07-24T05:42:14;6.43;;;2.23;;
21110;SDS011;10713;51.912;4.494;2023-07-24T05:44:40;5.50;;;2.20;;
21110;SDS011;10713;51.912;4.494;2023-07-24T05:47:05;7.68;;;2.22;;
21110;SDS011;10713;51.912;4.494;2023-07-24T05:49:30;11.10;;;2.38;;
21110;SDS011;10713;51.912;4.494;2023-07-24T05:51:56;6.70;;;2.63;;
21110;SDS011;10713;51.912;4.494;2023-07-24T05:54:22;4.93;;;2.13;;
21110;SDS011;10713;51.912;4.494;2023-07-24T05:56:47;7.82;;;2.63;;
21110;SDS011;10713;51.912;4.494;2023-07-24T05:59:12;4.95;;;2.33;;
21110;SDS011;10713;51.912;4.494;2023-07-24T06:01:38;7.97;;;3.08;;
21110;SDS011;10713;51.912;4.494;2023-07-24T06:04:03;6.25;;;2.65;;
21110;SDS011;10713;51.912;4.494;2023-07-24T06:06:30;7.43;;;2.80;;
21110;SDS011;10713;51.912;4.494;2023-07-24T06:08:55;12.43;;;3.13;;
21110;SDS011;10713;51.912;4.494;2023-07-24T06:11:20;7.57;;;2.75;;
21110;SDS011;10713;51.912;4.494;2023-07-24T06:13:47;6.93;;;2.65;;
21110;SDS011;10713;51.912;4.494;2023-07-24T06:16:13;14.40;;;2.97;;
21110;SDS011;10713;51.912;4.494;2023-07-24T06:18:38;8.90;;;3.08;;
21110;SDS011;10713;51.912;4.494;2023-07-24T06:21:04;9.40;;;3.17;;
21110;SDS011;10713;51.912;4.494;2023-07-24T06:23:29;6.63;;;2.78;;
21110;SDS011;10713;51.912;4.494;2023-07-24T06:25:55;16.27;;;3.97;;
21110;SDS011;10713;51.912;4.494;2023-07-24T06:28:20;6.65;;;2.38;;
21110;SDS011;10713;51.912;4.494;2023-07-24T06:30:46;8.68;;;2.65;;
21110;SDS011;10713;51.912;4.494;2023-07-24T06:33:11;6.60;;;2.85;;
21110;SDS011;10713;51.912;4.494;2023-07-24T06:35:37;7.90;;;2.55;;
21110;SDS011;10713;51.912;4.494;2023-07-24T06:38:02;7.18;;;2.75;;
21110;SDS011;10713;51.912;4.494;2023-07-24T06:40:27;11.50;;;3.20;;
21110;SDS011;10713;51.912;4.494;2023-07-24T06:42:53;8.68;;;2.80;;
21110;SDS011;10713;51.912;4.494;2023-07-24T06:45:19;7.95;;;3.13;;
21110;SDS011;10713;51.912;4.494;2023-07-24T06:47:44;8.35;;;3.00;;
21110;SDS011;10713;51.912;4.494;2023-07-24T06:50:09;6.05;;;2.60;;
21110;SDS011;10713;51.912;4.494;2023-07-24T06:52:35;6.93;;;2.95;;
21110;SDS011;10713;51.912;4.494;2023-07-24T06:55:00;8.73;;;3.10;;
21110;SDS011;10713;51.912;4.494;2023-07-24T06:57:25;6.47;;;2.67;;
21110;SDS011;10713;51.912;4.494;2023-07-24T06:59:51;6.90;;;2.75;;
21110;SDS011;10713;51.912;4.494;2023-07-24T07:02:16;9.73;;;3.17;;
21110;SDS011;10713;51.912;4.494;2023-07-24T07:04:41;9.52;;;3.08;;
21110;SDS011;10713;51.912;4.494;2023-07-24T07:07:07;15.27;;;2.97;;
21110;SDS011;10713;51.912;4.494;2023-07-24T07:09:32;7.75;;;3.10;;
21110;SDS011;10713;51.912;4.494;2023-07-24T07:11:57;8.30;;;2.67;;
21110;SDS011;10713;51.912;4.494;2023-07-24T07:14:23;6.07;;;3.25;;
21110;SDS011;10713;51.912;4.494;2023-07-24T07:16:49;9.52;;;3.60;;
21110;SDS011;10713;51.912;4.494;2023-07-24T07:19:14;7.32;;;3.40;;
21110;SDS011;10713;51.912;4.494;2023-07-24T07:21:39;11.50;;;3.33;;
21110;SDS011;10713;51.912;4.494;2023-07-24T07:24:05;10.90;;;3.63;;
21110;SDS011;10713;51.912;4.494;2023-07-24T07:26:30;9.32;;;3.38;;
21110;SDS011;10713;51.912;4.494;2023-07-24T07:28:55;9.57;;;3.17;;
21110;SDS011;10713;51.912;4.494;2023-07-24T07:31:21;6.15;;;3.22;;
21110;SDS011;10713;51.912;4.494;2023-07-24T07:33:46;6.18;;;2.90;;
21110;SDS011;10713;51.912;4.494;2023-07-24T07:36:11;7.55;;;3.33;;
21110;SDS011;10713;51.912;4.494;2023-07-24T07:38:37;10.55;;;3.40;;
21110;SDS011;10713;51.912;4.494;2023-07-24T07:41:04;11.07;;;4.20;;
21110;SDS011;10713;51.912;4.494;2023-07-24T07:43:31;8.02;;;3.97;;
21110;SDS011;10713;51.912;4.494;2023-07-24T07:45:56;7.68;;;3.85;;
21110;SDS011;10713;51.912;4.494;2023-07-24T07:48:23;11.05;;;4.22;;
21110;SDS011;10713;51.912;4.494;2023-07-24T07:50:51;8.00;;;3.95;;
21110;SDS011;10713;51.912;4.494;2023-07-24T07:53:17;9.30;;;4.10;;
21110;SDS011;10713;51.912;4.494;2023-07-24T07:55:42;10.07;;;3.97;;
21110;SDS011;10713;51.912;4.494;2023-07-24T07:58:07;8.85;;;3.83;;
21110;SDS011;10713;51.912;4.494;2023-07-24T08:00:33;14.27;;;4.40;;
21110;SDS011;10713;51.912;4.494;2023-07-24T08:02:59;10.35;;;3.80;;
21110;SDS011;10713;51.912;4.494;2023-07-24T08:05:24;10.68;;;3.92;;
21110;SDS011;10713;51.912;4.494;2023-07-24T08:07:49;13.75;;;4.32;;
21110;SDS011;10713;51.912;4.494;2023-07-24T08:10:15;10.32;;;4.22;;
21110;SDS011;10713;51.912;4.494;2023-07-24T08:12:41;6.90;;;3.60;;
21110;SDS011;10713;51.912;4.494;2023-07-24T08:15:07;8.57;;;3.22;;
21110;SDS011;10713;51.912;4.494;2023-07-24T08:17:33;8.45;;;3.75;;
21110;SDS011;10713;51.912;4.494;2023-07-24T08:19:58;9.90;;;4.57;;
21110;SDS011;10713;51.912;4.494;2023-07-24T08:22:23;10.23;;;4.47;;
21110;SDS011;10713;51.912;4.494;2023-07-24T08:24:49;11.07;;;3.53;;
21110;SDS011;10713;51.912;4.494;2023-07-24T08:27:16;9.57;;;3.55;;
21110;SDS011;10713;51.912;4.494;2023-07-24T08:29:41;8.30;;;3.33;;
21110;SDS011;10713;51.912;4.494;2023-07-24T08:32:07;8.07;;;3.72;;
21110;SDS011;10713;51.912;4.494;2023-07-24T08:34:32;6.72;;;3.65;;
21110;SDS011;10713;51.912;4.494;2023-07-24T08:36:58;7.85;;;3.15;;
21110;SDS011;10713;51.912;4.494;2023-07-24T08:39:23;5.35;;;3.20;;
21110;SDS011;10713;51.912;4.494;2023-07-24T08:41:48;6.38;;;3.38;;
21110;SDS011;10713;51.912;4.494;2023-07-24T08:44:14;16.23;;;4.47;;
21110;SDS011;10713;51.912;4.494;2023-07-24T08:46:40;8.45;;;3.10;;
21110;SDS011;10713;51.912;4.494;2023-07-24T08:49:14;8.70;;;3.10;;
21110;SDS011;10713;51.912;4.494;2023-07-24T08:51:42;7.75;;;3.30;;
21110;SDS011;10713;51.912;4.494;2023-07-24T08:54:09;7.75;;;3.30;;
21110;SDS011;10713;51.912;4.494;2023-07-24T08:56:36;5.80;;;3.38;;
21110;SDS011;10713;51.912;4.494;2023-07-24T08:59:02;4.72;;;3.05;;
21110;SDS011;10713;51.912;4.494;2023-07-24T09:01:28;6.60;;;3.58;;
21110;SDS011;10713;51.912;4.494;2023-07-24T09:03:53;6.50;;;3.28;;
21110;SDS011;10713;51.912;4.494;2023-07-24T09:06:19;6.72;;;3.75;;
21110;SDS011;10713;51.912;4.494;2023-07-24T09:08:44;7.32;;;3.53;;
21110;SDS011;10713;51.912;4.494;2023-07-24T09:11:10;8.27;;;3.83;;
21110;SDS011;10713;51.912;4.494;2023-07-24T09:13:42;4.80;;;2.55;;
21110;SDS011;10713;51.912;4.494;2023-07-24T09:16:08;6.85;;;3.35;;
21110;SDS011;10713;51.912;4.494;2023-07-24T09:18:40;4.53;;;2.88;;
21110;SDS011;10713;51.912;4.494;2023-07-24T09:21:06;5.75;;;2.83;;
21110;SDS011;10713;51.912;4.494;2023-07-24T09:23:32;8.07;;;3.72;;
21110;SDS011;10713;51.912;4.494;2023-07-24T09:25:58;9.63;;;3.40;;
21110;SDS011;10713;51.912;4.494;2023-07-24T09:28:23;7.85;;;3.63;;
21110;SDS011;10713;51.912;4.494;2023-07-24T09:30:56;7.88;;;3.42;;
21110;SDS011;10713;51.912;4.494;2023-07-24T09:33:23;9.38;;;3.70;;
21110;SDS011;10713;51.912;4.494;2023-07-24T09:36:02;8.07;;;3.97;;
21110;SDS011;10713;51.912;4.494;2023-07-24T09:38:33;9.13;;;3.53;;
21110;SDS011;10713;51.912;4.494;2023-07-24T09:41:00;6.95;;;3.00;;
21110;SDS011;10713;51.912;4.494;2023-07-24T09:43:27;9.60;;;3.28;;
21110;SDS011;10713;51.912;4.494;2023-07-24T09:45:53;6.97;;;3.13;;
21110;SDS011;10713;51.912;4.494;2023-07-24T09:48:20;5.32;;;2.92;;
21110;SDS011;10713;51.912;4.494;2023-07-24T09:50:48;7.53;;;3.03;;
21110;SDS011;10713;51.912;4.494;2023-07-24T09:53:18;10.40;;;3.97;;
21110;SDS011;10713;51.912;4.494;2023-07-24T09:55:52;13.40;;;4.32;;
21110;SDS011;10713;51.912;4.494;2023-07-24T09:58:18;5.70;;;3.72;;
21110;SDS011;10713;51.912;4.494;2023-07-24T10:00:46;11.02;;;4.28;;
21110;SDS011;10713;51.912;4.494;2023-07-24T10:03:14;10.35;;;2.95;;
21110;SDS011;10713;51.912;4.494;2023-07-24T10:05:40;5.35;;;2.33;;
21110;SDS011;10713;51.912;4.494;2023-07-24T10:08:07;6.78;;;2.78;;
21110;SDS011;10713;51.912;4.494;2023-07-24T10:10:33;8.65;;;2.88;;
21110;SDS011;10713;51.912;4.494;2023-07-24T10:12:59;6.88;;;2.90;;
21110;SDS011;10713;51.912;4.494;2023-07-24T10:15:25;6.57;;;3.28;;
21110;SDS011;10713;51.912;4.494;2023-07-24T10:18:00;8.13;;;3.28;;
21110;SDS011;10713;51.912;4.494;2023-07-24T10:20:37;6.85;;;3.38;;
21110;SDS011;10713;51.912;4.494;2023-07-24T10:23:04;11.93;;;3.40;;
21110;SDS011;10713;51.912;4.494;2023-07-24T10:25:31;5.07;;;2.85;;
21110;SDS011;10713;51.912;4.494;2023-07-24T10:28:01;8.90;;;3.00;;
21110;SDS011;10713;51.912;4.494;2023-07-24T10:30:36;6.95;;;2.50;;
21110;SDS011;10713;51.912;4.494;2023-07-24T10:35:36;5.93;;;2.88;;
21110;SDS011;10713;51.912;4.494;2023-07-24T10:38:08;5.28;;;3.05;;
21110;SDS011;10713;51.912;4.494;2023-07-24T10:40:35;7.40;;;3.45;;
21110;SDS011;10713;51.912;4.494;2023-07-24T10:43:01;11.38;;;3.67;;
21110;SDS011;10713;51.912;4.494;2023-07-24T10:45:40;4.18;;;2.60;;
21110;SDS011;10713;51.912;4.494;2023-07-24T10:48:05;5.22;;;2.90;;
21110;SDS011;10713;51.912;4.494;2023-07-24T10:50:40;9.80;;;2.50;;
21110;SDS011;10713;51.912;4.494;2023-07-24T10:53:11;6.95;;;3.08;;
21110;SDS011;10713;51.912;4.494;2023-07-24T10:55:38;4.28;;;2.83;;
21110;SDS011;10713;51.912;4.494;2023-07-24T10:58:04;5.18;;;3.10;;
21110;SDS011;10713;51.912;4.494;2023-07-24T11:00:30;6.32;;;2.85;;
21110;SDS011;10713;51.912;4.494;2023-07-24T11:02:56;7.15;;;2.83;;
21110;SDS011;10713;51.912;4.494;2023-07-24T11:05:21;9.23;;;3.13;;
21110;SDS011;10713;51.912;4.494;2023-07-24T11:07:48;6.72;;;2.92;;
21110;SDS011;10713;51.912;4.494;2023-07-24T11:10:14;4.88;;;2.78;;
21110;SDS011;10713;51.912;4.494;2023-07-24T11:12:46;6.03;;;2.95;;
21110;SDS011;10713;51.912;4.494;2023-07-24T11:15:12;4.38;;;2.42;;
21110;SDS011;10713;51.912;4.494;2023-07-24T11:17:39;7.78;;;3.08;;
21110;SDS011;10713;51.912;4.494;2023-07-24T11:20:13;5.82;;;2.70;;
21110;SDS011;10713;51.912;4.494;2023-07-24T11:22:41;5.13;;;3.20;;
21110;SDS011;10713;51.912;4.494;2023-07-24T11:25:08;11.50;;;3.67;;
21110;SDS011;10713;51.912;4.494;2023-07-24T11:27:43;4.03;;;2.83;;
21110;SDS011;10713;51.912;4.494;2023-07-24T11:30:09;5.53;;;2.92;;
21110;SDS011;10713;51.912;4.494;2023-07-24T11:32:43;7.13;;;2.97;;
21110;SDS011;10713;51.912;4.494;2023-07-24T11:35:09;13.65;;;3.50;;
21110;SDS011;10713;51.912;4.494;2023-07-24T11:37:35;4.72;;;2.92;;
21110;SDS011;10713;51.912;4.494;2023-07-24T11:40:01;5.97;;;2.63;;
21110;SDS011;10713;51.912;4.494;2023-07-24T11:42:33;7.05;;;3.00;;
21110;SDS011;10713;51.912;4.494;2023-07-24T11:45:00;7.85;;;3.40;;
21110;SDS011;10713;51.912;4.494;2023-07-24T11:47:27;6.70;;;3.28;;
21110;SDS011;10713;51.912;4.494;2023-07-24T11:49:56;5.93;;;3.55;;
21110;SDS011;10713;51.912;4.494;2023-07-24T11:52:22;5.47;;;2.70;;
21110;SDS011;10713;51.912;4.494;2023-07-24T11:54:55;9.80;;;3.73;;
21110;SDS011;10713;51.912;4.494;2023-07-24T11:57:25;4.45;;;2.92;;
21110;SDS011;10713;51.912;4.494;2023-07-24T11:59:51;7.32;;;3.25;;
21110;SDS011;10713;51.912;4.494;2023-07-24T12:02:18;5.47;;;3.63;;
21110;SDS011;10713;51.912;4.494;2023-07-24T12:04:44;5.47;;;3.25;;
21110;SDS011;10713;51.912;4.494;2023-07-24T12:07:09;9.30;;;3.10;;
21110;SDS011;10713;51.912;4.494;2023-07-24T12:09:34;5.93;;;3.30;;
21110;SDS011;10713;51.912;4.494;2023-07-24T12:12:00;9.90;;;3.50;;
21110;SDS011;10713;51.912;4.494;2023-07-24T12:14:28;5.05;;;2.92;;
21110;SDS011;10713;51.912;4.494;2023-07-24T12:17:03;6.07;;;3.15;;
21110;SDS011;10713;51.912;4.494;2023-07-24T12:19:31;7.65;;;3.88;;
21110;SDS011;10713;51.912;4.494;2023-07-24T12:21:56;5.85;;;2.70;;
21110;SDS011;10713;51.912;4.494;2023-07-24T12:24:21;4.57;;;2.77;;
21110;SDS011;10713;51.912;4.494;2023-07-24T12:26:47;5.97;;;2.88;;
21110;SDS011;10713;51.912;4.494;2023-07-24T12:29:12;4.60;;;2.17;;
21110;SDS011;10713;51.912;4.494;2023-07-24T12:31:37;3.50;;;2.40;;
21110;SDS011;10713;51.912;4.494;2023-07-24T12:34:03;4.55;;;2.08;;
21110;SDS011;10713;51.912;4.494;2023-07-24T12:36:28;6.07;;;2.85;;
21110;SDS011;10713;51.912;4.494;2023-07-24T12:38:53;5.38;;;2.53;;
21110;SDS011;10713;51.912;4.494;2023-07-24T12:41:19;4.47;;;2.05;;
21110;SDS011;10713;51.912;4.494;2023-07-24T12:43:44;4.55;;;2.08;;
21110;SDS011;10713;51.912;4.494;2023-07-24T12:46:10;4.85;;;2.22;;
21110;SDS011;10713;51.912;4.494;2023-07-24T12:48:35;7.25;;;2.47;;
21110;SDS011;10713;51.912;4.494;2023-07-24T12:51:01;3.53;;;2.10;;
21110;SDS011;10713;51.912;4.494;2023-07-24T12:53:28;3.38;;;1.90;;
21110;SDS011;10713;51.912;4.494;2023-07-24T12:55:53;5.10;;;2.20;;
21110;SDS011;10713;51.912;4.494;2023-07-24T12:58:19;3.50;;;2.28;;
21110;SDS011;10713;51.912;4.494;2023-07-24T13:00:44;11.27;;;2.47;;
21110;SDS011;10713;51.912;4.494;2023-07-24T13:03:10;4.20;;;2.13;;
21110;SDS011;10713;51.912;4.494;2023-07-24T13:05:35;3.40;;;1.98;;
21110;SDS011;10713;51.912;4.494;2023-07-24T13:08:00;4.45;;;1.70;;
21110;SDS011;10713;51.912;4.494;2023-07-24T13:10:26;4.72;;;2.08;;
21110;SDS011;10713;51.912;4.494;2023-07-24T13:12:51;4.78;;;1.60;;
21110;SDS011;10713;51.912;4.494;2023-07-24T13:15:16;5.82;;;1.70;;
21110;SDS011;10713;51.912;4.494;2023-07-24T13:17:42;4.45;;;1.70;;
21110;SDS011;10713;51.912;4.494;2023-07-24T13:20:07;4.47;;;1.50;;
21110;SDS011;10713;51.912;4.494;2023-07-24T13:22:33;8.10;;;1.98;;
21110;SDS011;10713;51.912;4.494;2023-07-24T13:24:58;4.60;;;1.60;;
21110;SDS011;10713;51.912;4.494;2023-07-24T13:27:23;3.90;;;1.47;;
21110;SDS011;10713;51.912;4.494;2023-07-24T13:29:49;5.40;;;1.77;;
21110;SDS011;10713;51.912;4.494;2023-07-24T13:32:14;3.92;;;1.40;;
21110;SDS011;10713;51.912;4.494;2023-07-24T13:34:41;5.63;;;1.80;;
21110;SDS011;10713;51.912;4.494;2023-07-24T13:37:06;5.65;;;2.03;;
21110;SDS011;10713;51.912;4.494;2023-07-24T13:39:31;5.63;;;1.65;;
21110;SDS011;10713;51.912;4.494;2023-07-24T13:41:58;14.93;;;2.03;;
21110;SDS011;10713;51.912;4.494;2023-07-24T13:44:24;4.90;;;1.45;;
21110;SDS011;10713;51.912;4.494;2023-07-24T13:46:49;5.25;;;1.50;;
21110;SDS011;10713;51.912;4.494;2023-07-24T13:49:14;4.78;;;1.70;;
21110;SDS011;10713;51.912;4.494;2023-07-24T13:51:40;3.03;;;1.70;;
21110;SDS011;10713;51.912;4.494;2023-07-24T13:54:05;4.72;;;1.70;;
21110;SDS011;10713;51.912;4.494;2023-07-24T13:56:30;4.97;;;1.73;;
21110;SDS011;10713;51.912;4.494;2023-07-24T13:58:59;6.45;;;1.90;;
21110;SDS011;10713;51.912;4.494;2023-07-24T14:01:25;4.63;;;1.55;;
21110;SDS011;10713;51.912;4.494;2023-07-24T14:03:50;4.30;;;1.35;;
21110;SDS011;10713;51.912;4.494;2023-07-24T14:06:16;3.58;;;1.35;;
21110;SDS011;10713;51.912;4.494;2023-07-24T14:08:41;5.33;;;1.70;;
21110;SDS011;10713;51.912;4.494;2023-07-24T14:11:06;2.53;;;1.42;;
21110;SDS011;10713;51.912;4.494;2023-07-24T14:13:32;3.17;;;1.30;;
21110;SDS011;10713;51.912;4.494;2023-07-24T14:15:57;3.60;;;1.10;;
21110;SDS011;10713;51.912;4.494;2023-07-24T14:18:22;2.17;;;1.20;;
21110;SDS011;10713;51.912;4.494;2023-07-24T14:20:47;8.80;;;2.42;;
21110;SDS011;10713;51.912;4.494;2023-07-24T14:23:13;5.80;;;1.45;;
21110;SDS011;10713;51.912;4.494;2023-07-24T14:25:38;3.72;;;1.45;;
21110;SDS011;10713;51.912;4.494;2023-07-24T14:28:04;3.47;;;1.35;;
21110;SDS011;10713;51.912;4.494;2023-07-24T14:30:29;7.10;;;1.80;;
21110;SDS011;10713;51.912;4.494;2023-07-24T14:32:54;5.10;;;1.20;;
21110;SDS011;10713;51.912;4.494;2023-07-24T14:35:20;6.88;;;1.45;;
21110;SDS011;10713;51.912;4.494;2023-07-24T14:37:45;4.15;;;1.33;;
21110;SDS011;10713;51.912;4.494;2023-07-24T14:40:10;3.38;;;1.30;;
21110;SDS011;10713;51.912;4.494;2023-07-24T14:42:39;4.32;;;1.33;;